TAF KROA
KROA 280537Z 2806/2906 26005KT P6SM SCT150 FM281600 28010G20KT P6SM SCT250 FM282200 30015G27KT P6SM SCT250=
METAR KROA
WC KROA
WS KROA
WV KROA